sensor_id;sensor_type;location;lat;lon;timestamp;temperature;humidity
15452;DHT22;7827;53.594;9.938;2023-10-09T00:00:34;11.60;99.90
15452;DHT22;7827;53.594;9.938;2023-10-09T00:03:22;11.50;99.90
15452;DHT22;7827;53.594;9.938;2023-10-09T00:05:51;11.40;99.90
15452;DHT22;7827;53.594;9.938;2023-10-09T00:08:21;11.40;99.90
15452;DHT22;7827;53.594;9.938;2023-10-09T00:10:59;11.50;99.90
15452;DHT22;7827;53.594;9.938;2023-10-09T00:13:41;11.60;99.90
15452;DHT22;7827;53.594;9.938;2023-10-09T00:16:17;11.60;99.90
15452;DHT22;7827;53.594;9.938;2023-10-09T00:18:51;11.70;99.90
15452;DHT22;7827;53.594;9.938;2023-10-09T00:21:20;11.70;99.90
15452;DHT22;7827;53.594;9.938;2023-10-09T00:23:50;11.70;99.90
15452;DHT22;7827;53.594;9.938;2023-10-09T00:26:24;11.70;99.90
15452;DHT22;7827;53.594;9.938;2023-10-09T00:28:53;11.70;99.90
15452;DHT22;7827;53.594;9.938;2023-10-09T00:31:21;11.70;99.90
15452;DHT22;7827;53.594;9.938;2023-10-09T00:33:59;11.70;99.90
15452;DHT22;7827;53.594;9.938;2023-10-09T00:36:46;11.70;99.90
15452;DHT22;7827;53.594;9.938;2023-10-09T00:39:19;11.70;99.90
15452;DHT22;7827;53.594;9.938;2023-10-09T00:42:09;11.80;99.90
15452;DHT22;7827;53.594;9.938;2023-10-09T00:44:40;11.80;99.90
15452;DHT22;7827;53.594;9.938;2023-10-09T00:47:11;11.80;99.90
15452;DHT22;7827;53.594;9.938;2023-10-09T00:49:52;11.80;99.90
15452;DHT22;7827;53.594;9.938;2023-10-09T00:52:29;11.80;99.90
15452;DHT22;7827;53.594;9.938;2023-10-09T00:55:05;11.80;99.90
15452;DHT22;7827;53.594;9.938;2023-10-09T00:57:45;11.70;99.90
15452;DHT22;7827;53.594;9.938;2023-10-09T01:00:27;11.70;99.90
15452;DHT22;7827;53.594;9.938;2023-10-09T01:03:14;11.60;99.90
15452;DHT22;7827;53.594;9.938;2023-10-09T01:05:49;11.60;99.90
15452;DHT22;7827;53.594;9.938;2023-10-09T01:08:24;11.70;99.90
15452;DHT22;7827;53.594;9.938;2023-10-09T01:10:57;11.70;99.90
15452;DHT22;7827;53.594;9.938;2023-10-09T01:13:37;11.60;99.90
15452;DHT22;7827;53.594;9.938;2023-10-09T01:16:21;11.70;99.90
15452;DHT22;7827;53.594;9.938;2023-10-09T01:18:52;11.60;99.90
15452;DHT22;7827;53.594;9.938;2023-10-09T01:21:25;11.60;99.90
15452;DHT22;7827;53.594;9.938;2023-10-09T01:23:55;11.50;99.90
15452;DHT22;7827;53.594;9.938;2023-10-09T01:26:32;11.50;99.90
15452;DHT22;7827;53.594;9.938;2023-10-09T01:29:07;11.50;99.90
15452;DHT22;7827;53.594;9.938;2023-10-09T01:31:37;11.50;99.90
15452;DHT22;7827;53.594;9.938;2023-10-09T01:34:11;11.60;99.90
15452;DHT22;7827;53.594;9.938;2023-10-09T01:36:41;11.60;99.90
15452;DHT22;7827;53.594;9.938;2023-10-09T01:39:11;11.50;99.90
15452;DHT22;7827;53.594;9.938;2023-10-09T01:41:51;11.60;99.90
15452;DHT22;7827;53.594;9.938;2023-10-09T01:44:26;11.50;99.90
15452;DHT22;7827;53.594;9.938;2023-10-09T01:46:57;11.40;99.90
15452;DHT22;7827;53.594;9.938;2023-10-09T01:49:25;11.60;99.90
15452;DHT22;7827;53.594;9.938;2023-10-09T01:52:02;11.60;99.90
15452;DHT22;7827;53.594;9.938;2023-10-09T01:54:37;11.50;99.90
15452;DHT22;7827;53.594;9.938;2023-10-09T01:57:08;11.50;99.90
15452;DHT22;7827;53.594;9.938;2023-10-09T01:59:39;11.60;99.90
15452;DHT22;7827;53.594;9.938;2023-10-09T02:02:11;11.50;99.90
15452;DHT22;7827;53.594;9.938;2023-10-09T02:04:43;11.60;99.90
15452;DHT22;7827;53.594;9.938;2023-10-09T02:07:11;11.60;99.90
15452;DHT22;7827;53.594;9.938;2023-10-09T02:09:42;11.50;99.90
15452;DHT22;7827;53.594;9.938;2023-10-09T02:12:14;11.50;99.90
15452;DHT22;7827;53.594;9.938;2023-10-09T02:14:42;11.40;99.90
15452;DHT22;7827;53.594;9.938;2023-10-09T02:17:11;11.40;99.90
15452;DHT22;7827;53.594;9.938;2023-10-09T02:19:44;11.30;99.90
15452;DHT22;7827;53.594;9.938;2023-10-09T02:22:16;11.30;99.90
15452;DHT22;7827;53.594;9.938;2023-10-09T02:24:46;11.20;99.90
15452;DHT22;7827;53.594;9.938;2023-10-09T02:27:18;11.20;99.90
15452;DHT22;7827;53.594;9.938;2023-10-09T02:30:17;11.20;99.90
15452;DHT22;7827;53.594;9.938;2023-10-09T02:32:54;11.00;99.90
15452;DHT22;7827;53.594;9.938;2023-10-09T02:35:33;11.00;99.90
15452;DHT22;7827;53.594;9.938;2023-10-09T02:38:05;11.00;99.90
15452;DHT22;7827;53.594;9.938;2023-10-09T02:40:36;11.00;99.90
15452;DHT22;7827;53.594;9.938;2023-10-09T02:43:27;11.10;99.90
15452;DHT22;7827;53.594;9.938;2023-10-09T02:46:01;11.20;99.90
15452;DHT22;7827;53.594;9.938;2023-10-09T02:48:41;11.20;99.90
15452;DHT22;7827;53.594;9.938;2023-10-09T02:51:14;11.20;99.90
15452;DHT22;7827;53.594;9.938;2023-10-09T02:54:00;11.20;99.90
15452;DHT22;7827;53.594;9.938;2023-10-09T02:56:46;11.30;99.90
15452;DHT22;7827;53.594;9.938;2023-10-09T02:59:22;11.10;99.90
15452;DHT22;7827;53.594;9.938;2023-10-09T03:01:51;11.00;99.90
15452;DHT22;7827;53.594;9.938;2023-10-09T03:04:20;11.00;99.90
15452;DHT22;7827;53.594;9.938;2023-10-09T03:06:51;11.00;99.90
15452;DHT22;7827;53.594;9.938;2023-10-09T03:09:24;11.00;99.90
15452;DHT22;7827;53.594;9.938;2023-10-09T03:12:02;11.10;99.90
15452;DHT22;7827;53.594;9.938;2023-10-09T03:14:35;11.00;99.90
15452;DHT22;7827;53.594;9.938;2023-10-09T03:17:06;11.10;99.90
15452;DHT22;7827;53.594;9.938;2023-10-09T03:19:38;11.00;99.90
15452;DHT22;7827;53.594;9.938;2023-10-09T03:22:08;11.10;99.90
15452;DHT22;7827;53.594;9.938;2023-10-09T03:24:38;11.10;99.90
15452;DHT22;7827;53.594;9.938;2023-10-09T03:27:10;11.10;99.90
15452;DHT22;7827;53.594;9.938;2023-10-09T03:29:38;11.00;99.90
15452;DHT22;7827;53.594;9.938;2023-10-09T03:32:07;11.00;99.90
15452;DHT22;7827;53.594;9.938;2023-10-09T03:34:36;11.10;99.90
15452;DHT22;7827;53.594;9.938;2023-10-09T03:37:05;11.10;99.90
15452;DHT22;7827;53.594;9.938;2023-10-09T03:39:48;11.10;99.90
15452;DHT22;7827;53.594;9.938;2023-10-09T03:42:23;11.00;99.90
15452;DHT22;7827;53.594;9.938;2023-10-09T03:44:52;10.90;99.90
15452;DHT22;7827;53.594;9.938;2023-10-09T03:47:21;11.00;99.90
15452;DHT22;7827;53.594;9.938;2023-10-09T03:49:51;10.90;99.90
15452;DHT22;7827;53.594;9.938;2023-10-09T03:52:21;11.00;99.90
15452;DHT22;7827;53.594;9.938;2023-10-09T03:54:53;11.00;99.90
15452;DHT22;7827;53.594;9.938;2023-10-09T03:57:24;10.90;99.90
15452;DHT22;7827;53.594;9.938;2023-10-09T03:59:52;11.00;99.90
15452;DHT22;7827;53.594;9.938;2023-10-09T04:02:22;10.90;99.90
15452;DHT22;7827;53.594;9.938;2023-10-09T04:04:51;11.00;99.90
15452;DHT22;7827;53.594;9.938;2023-10-09T04:07:20;10.90;99.90
15452;DHT22;7827;53.594;9.938;2023-10-09T04:09:48;10.90;99.90
15452;DHT22;7827;53.594;9.938;2023-10-09T04:12:31;10.90;99.90
15452;DHT22;7827;53.594;9.938;2023-10-09T04:15:01;10.90;99.90
15452;DHT22;7827;53.594;9.938;2023-10-09T04:17:32;11.00;99.90
15452;DHT22;7827;53.594;9.938;2023-10-09T04:20:02;10.90;99.90
15452;DHT22;7827;53.594;9.938;2023-10-09T04:22:57;10.90;99.90
15452;DHT22;7827;53.594;9.938;2023-10-09T04:25:32;10.90;99.90
15452;DHT22;7827;53.594;9.938;2023-10-09T04:28:11;11.00;99.90
15452;DHT22;7827;53.594;9.938;2023-10-09T04:30:47;11.00;99.90
15452;DHT22;7827;53.594;9.938;2023-10-09T04:33:21;10.90;99.90
15452;DHT22;7827;53.594;9.938;2023-10-09T04:36:10;11.00;99.90
15452;DHT22;7827;53.594;9.938;2023-10-09T04:38:51;10.90;99.90
15452;DHT22;7827;53.594;9.938;2023-10-09T04:41:43;10.90;99.90
15452;DHT22;7827;53.594;9.938;2023-10-09T04:44:27;10.90;99.90
15452;DHT22;7827;53.594;9.938;2023-10-09T04:47:03;11.00;99.90
15452;DHT22;7827;53.594;9.938;2023-10-09T04:49:52;10.90;99.90
15452;DHT22;7827;53.594;9.938;2023-10-09T04:52:38;10.90;99.90
15452;DHT22;7827;53.594;9.938;2023-10-09T04:55:21;10.90;99.90
15452;DHT22;7827;53.594;9.938;2023-10-09T04:57:52;10.90;99.90
15452;DHT22;7827;53.594;9.938;2023-10-09T05:00:37;10.80;99.90
15452;DHT22;7827;53.594;9.938;2023-10-09T05:03:29;10.90;99.90
15452;DHT22;7827;53.594;9.938;2023-10-09T05:06:11;10.90;99.90
15452;DHT22;7827;53.594;9.938;2023-10-09T05:09:00;10.90;99.90
15452;DHT22;7827;53.594;9.938;2023-10-09T05:11:35;10.90;99.90
15452;DHT22;7827;53.594;9.938;2023-10-09T05:14:18;10.90;99.90
15452;DHT22;7827;53.594;9.938;2023-10-09T05:16:55;10.90;99.90
15452;DHT22;7827;53.594;9.938;2023-10-09T05:19:23;11.00;99.90
15452;DHT22;7827;53.594;9.938;2023-10-09T05:22:00;11.00;99.90
15452;DHT22;7827;53.594;9.938;2023-10-09T05:24:34;11.00;99.90
15452;DHT22;7827;53.594;9.938;2023-10-09T05:27:11;11.00;99.90
15452;DHT22;7827;53.594;9.938;2023-10-09T05:30:12;11.00;99.90
15452;DHT22;7827;53.594;9.938;2023-10-09T05:32:54;10.90;99.90
15452;DHT22;7827;53.594;9.938;2023-10-09T05:35:25;11.00;99.90
15452;DHT22;7827;53.594;9.938;2023-10-09T05:38:07;10.90;99.90
15452;DHT22;7827;53.594;9.938;2023-10-09T05:40:51;10.90;99.90
15452;DHT22;7827;53.594;9.938;2023-10-09T05:43:31;11.00;99.90
15452;DHT22;7827;53.594;9.938;2023-10-09T05:46:17;10.90;99.90
15452;DHT22;7827;53.594;9.938;2023-10-09T05:48:47;10.90;99.90
15452;DHT22;7827;53.594;9.938;2023-10-09T05:51:36;10.90;99.90
15452;DHT22;7827;53.594;9.938;2023-10-09T05:54:10;10.90;99.90
15452;DHT22;7827;53.594;9.938;2023-10-09T05:57:05;10.90;99.90
15452;DHT22;7827;53.594;9.938;2023-10-09T05:59:51;10.80;99.90
15452;DHT22;7827;53.594;9.938;2023-10-09T06:02:52;10.80;99.90
15452;DHT22;7827;53.594;9.938;2023-10-09T06:05:39;10.80;99.90
15452;DHT22;7827;53.594;9.938;2023-10-09T06:08:29;10.80;99.90
15452;DHT22;7827;53.594;9.938;2023-10-09T06:11:14;10.70;99.90
15452;DHT22;7827;53.594;9.938;2023-10-09T06:13:58;10.70;99.90
15452;DHT22;7827;53.594;9.938;2023-10-09T06:16:31;10.70;99.90
15452;DHT22;7827;53.594;9.938;2023-10-09T06:19:09;10.70;99.90
15452;DHT22;7827;53.594;9.938;2023-10-09T06:21:42;10.80;99.90
15452;DHT22;7827;53.594;9.938;2023-10-09T06:24:27;10.80;99.90
15452;DHT22;7827;53.594;9.938;2023-10-09T06:27:09;10.80;99.90
15452;DHT22;7827;53.594;9.938;2023-10-09T06:29:51;10.70;99.90
15452;DHT22;7827;53.594;9.938;2023-10-09T06:32:40;10.70;99.90
15452;DHT22;7827;53.594;9.938;2023-10-09T06:35:18;10.70;99.90
15452;DHT22;7827;53.594;9.938;2023-10-09T06:37:50;10.80;99.90
15452;DHT22;7827;53.594;9.938;2023-10-09T06:40:34;10.70;99.90
15452;DHT22;7827;53.594;9.938;2023-10-09T06:43:50;10.70;99.90
15452;DHT22;7827;53.594;9.938;2023-10-09T06:46:20;10.70;99.90
15452;DHT22;7827;53.594;9.938;2023-10-09T06:49:06;10.70;99.90
15452;DHT22;7827;53.594;9.938;2023-10-09T06:51:55;10.70;99.90
15452;DHT22;7827;53.594;9.938;2023-10-09T06:54:42;10.60;99.90
15452;DHT22;7827;53.594;9.938;2023-10-09T06:57:18;10.60;99.90
15452;DHT22;7827;53.594;9.938;2023-10-09T07:00:00;10.70;99.90
15452;DHT22;7827;53.594;9.938;2023-10-09T07:02:57;10.80;99.90
15452;DHT22;7827;53.594;9.938;2023-10-09T07:05:38;10.90;99.90
15452;DHT22;7827;53.594;9.938;2023-10-09T07:08:27;11.00;99.90
15452;DHT22;7827;53.594;9.938;2023-10-09T07:11:05;11.00;99.90
15452;DHT22;7827;53.594;9.938;2023-10-09T07:14:11;11.10;99.90
15452;DHT22;7827;53.594;9.938;2023-10-09T07:17:02;11.00;99.90
15452;DHT22;7827;53.594;9.938;2023-10-09T07:19:43;11.10;99.90
15452;DHT22;7827;53.594;9.938;2023-10-09T07:22:36;11.10;99.90
15452;DHT22;7827;53.594;9.938;2023-10-09T07:25:20;11.10;99.90
15452;DHT22;7827;53.594;9.938;2023-10-09T07:28:23;11.10;99.90
15452;DHT22;7827;53.594;9.938;2023-10-09T07:31:04;11.20;99.90
15452;DHT22;7827;53.594;9.938;2023-10-09T07:33:36;11.20;99.90
15452;DHT22;7827;53.594;9.938;2023-10-09T07:36:30;11.30;99.90
15452;DHT22;7827;53.594;9.938;2023-10-09T07:39:05;11.30;99.90
15452;DHT22;7827;53.594;9.938;2023-10-09T07:41:44;11.40;99.90
15452;DHT22;7827;53.594;9.938;2023-10-09T07:44:23;11.50;99.90
15452;DHT22;7827;53.594;9.938;2023-10-09T07:47:05;11.50;99.90
15452;DHT22;7827;53.594;9.938;2023-10-09T07:49:46;11.50;99.90
15452;DHT22;7827;53.594;9.938;2023-10-09T07:52:22;11.50;99.90
15452;DHT22;7827;53.594;9.938;2023-10-09T07:54:53;11.60;99.90
15452;DHT22;7827;53.594;9.938;2023-10-09T07:57:28;11.60;99.90
15452;DHT22;7827;53.594;9.938;2023-10-09T08:00:06;11.60;99.90
15452;DHT22;7827;53.594;9.938;2023-10-09T08:02:55;11.70;99.90
15452;DHT22;7827;53.594;9.938;2023-10-09T08:05:28;11.50;99.90
15452;DHT22;7827;53.594;9.938;2023-10-09T08:08:03;11.50;99.90
15452;DHT22;7827;53.594;9.938;2023-10-09T08:10:55;11.50;99.90
15452;DHT22;7827;53.594;9.938;2023-10-09T08:13:40;11.40;99.90
15452;DHT22;7827;53.594;9.938;2023-10-09T08:16:24;11.30;99.90
15452;DHT22;7827;53.594;9.938;2023-10-09T08:19:04;11.30;99.90
15452;DHT22;7827;53.594;9.938;2023-10-09T08:21:47;11.30;99.90
15452;DHT22;7827;53.594;9.938;2023-10-09T08:24:37;11.30;99.90
15452;DHT22;7827;53.594;9.938;2023-10-09T08:27:10;11.60;99.90
15452;DHT22;7827;53.594;9.938;2023-10-09T08:30:14;11.70;99.90
15452;DHT22;7827;53.594;9.938;2023-10-09T08:32:55;11.70;99.90
15452;DHT22;7827;53.594;9.938;2023-10-09T08:35:34;11.60;99.90
15452;DHT22;7827;53.594;9.938;2023-10-09T08:38:14;11.60;99.90
15452;DHT22;7827;53.594;9.938;2023-10-09T08:40:51;11.50;99.90
15452;DHT22;7827;53.594;9.938;2023-10-09T08:43:29;11.40;99.90
15452;DHT22;7827;53.594;9.938;2023-10-09T08:46:05;11.40;99.90
15452;DHT22;7827;53.594;9.938;2023-10-09T08:48:34;11.50;99.90
15452;DHT22;7827;53.594;9.938;2023-10-09T08:51:06;11.50;99.90
15452;DHT22;7827;53.594;9.938;2023-10-09T08:53:36;11.50;99.90
15452;DHT22;7827;53.594;9.938;2023-10-09T08:56:10;11.50;99.90
15452;DHT22;7827;53.594;9.938;2023-10-09T08:58:40;11.60;99.90
15452;DHT22;7827;53.594;9.938;2023-10-09T09:01:08;11.60;99.90
15452;DHT22;7827;53.594;9.938;2023-10-09T09:03:39;11.60;99.90
15452;DHT22;7827;53.594;9.938;2023-10-09T09:06:10;11.60;99.90
15452;DHT22;7827;53.594;9.938;2023-10-09T09:08:43;11.60;99.90
15452;DHT22;7827;53.594;9.938;2023-10-09T09:11:14;11.50;99.90
15452;DHT22;7827;53.594;9.938;2023-10-09T09:13:48;11.50;99.90
15452;DHT22;7827;53.594;9.938;2023-10-09T09:16:33;11.50;99.90
15452;DHT22;7827;53.594;9.938;2023-10-09T09:19:05;11.50;99.90
15452;DHT22;7827;53.594;9.938;2023-10-09T09:21:49;11.50;99.90
15452;DHT22;7827;53.594;9.938;2023-10-09T09:24:22;11.50;99.90
15452;DHT22;7827;53.594;9.938;2023-10-09T09:27:02;11.60;99.90
15452;DHT22;7827;53.594;9.938;2023-10-09T09:29:41;11.60;99.90
15452;DHT22;7827;53.594;9.938;2023-10-09T09:32:27;11.70;99.90
15452;DHT22;7827;53.594;9.938;2023-10-09T09:35:04;11.70;99.90
15452;DHT22;7827;53.594;9.938;2023-10-09T09:37:52;11.70;99.90
15452;DHT22;7827;53.594;9.938;2023-10-09T09:40:22;11.70;99.90
15452;DHT22;7827;53.594;9.938;2023-10-09T09:43:02;11.80;99.90
15452;DHT22;7827;53.594;9.938;2023-10-09T09:45:36;11.80;99.90
15452;DHT22;7827;53.594;9.938;2023-10-09T09:48:10;11.80;99.90
15452;DHT22;7827;53.594;9.938;2023-10-09T09:50:42;11.90;99.90
15452;DHT22;7827;53.594;9.938;2023-10-09T09:53:11;11.90;99.90
15452;DHT22;7827;53.594;9.938;2023-10-09T09:55:49;12.00;99.90
15452;DHT22;7827;53.594;9.938;2023-10-09T09:58:27;12.10;99.90
15452;DHT22;7827;53.594;9.938;2023-10-09T10:01:03;12.10;99.90
15452;DHT22;7827;53.594;9.938;2023-10-09T10:03:45;12.20;99.90
15452;DHT22;7827;53.594;9.938;2023-10-09T10:06:19;12.30;99.90
15452;DHT22;7827;53.594;9.938;2023-10-09T10:08:48;12.50;99.90
15452;DHT22;7827;53.594;9.938;2023-10-09T10:11:44;12.50;99.90
15452;DHT22;7827;53.594;9.938;2023-10-09T10:14:15;12.60;99.90
15452;DHT22;7827;53.594;9.938;2023-10-09T10:17:07;12.70;99.90
15452;DHT22;7827;53.594;9.938;2023-10-09T10:20:06;12.80;99.90
15452;DHT22;7827;53.594;9.938;2023-10-09T10:22:49;12.80;99.90
15452;DHT22;7827;53.594;9.938;2023-10-09T10:25:34;12.70;99.90
15452;DHT22;7827;53.594;9.938;2023-10-09T10:28:20;12.90;99.90
15452;DHT22;7827;53.594;9.938;2023-10-09T10:31:10;12.90;99.90
15452;DHT22;7827;53.594;9.938;2023-10-09T10:34:04;12.90;99.90
15452;DHT22;7827;53.594;9.938;2023-10-09T10:36:37;13.00;99.90
15452;DHT22;7827;53.594;9.938;2023-10-09T10:39:09;13.00;99.90
15452;DHT22;7827;53.594;9.938;2023-10-09T10:41:53;13.00;99.90
15452;DHT22;7827;53.594;9.938;2023-10-09T10:44:26;13.10;99.90
15452;DHT22;7827;53.594;9.938;2023-10-09T10:47:05;13.10;99.90
15452;DHT22;7827;53.594;9.938;2023-10-09T10:49:51;13.10;99.90
15452;DHT22;7827;53.594;9.938;2023-10-09T10:52:26;13.00;99.90
15452;DHT22;7827;53.594;9.938;2023-10-09T10:55:11;12.80;99.90
15452;DHT22;7827;53.594;9.938;2023-10-09T10:58:20;12.70;99.90
15452;DHT22;7827;53.594;9.938;2023-10-09T11:00:53;12.60;99.90
15452;DHT22;7827;53.594;9.938;2023-10-09T11:03:39;12.60;99.90
15452;DHT22;7827;53.594;9.938;2023-10-09T11:06:28;12.50;99.90
15452;DHT22;7827;53.594;9.938;2023-10-09T11:09:09;12.50;99.90
15452;DHT22;7827;53.594;9.938;2023-10-09T11:11:48;12.50;99.90
15452;DHT22;7827;53.594;9.938;2023-10-09T11:14:41;12.50;99.90
15452;DHT22;7827;53.594;9.938;2023-10-09T11:18:06;12.60;99.90
15452;DHT22;7827;53.594;9.938;2023-10-09T11:20:44;12.60;99.90
15452;DHT22;7827;53.594;9.938;2023-10-09T11:23:25;12.60;99.90
15452;DHT22;7827;53.594;9.938;2023-10-09T11:26:04;12.50;99.90
15452;DHT22;7827;53.594;9.938;2023-10-09T11:29:09;12.50;99.90
15452;DHT22;7827;53.594;9.938;2023-10-09T11:32:00;12.60;99.90
15452;DHT22;7827;53.594;9.938;2023-10-09T11:34:43;12.60;99.90
15452;DHT22;7827;53.594;9.938;2023-10-09T11:37:39;12.60;99.90
15452;DHT22;7827;53.594;9.938;2023-10-09T11:40:31;12.60;99.90
15452;DHT22;7827;53.594;9.938;2023-10-09T11:43:17;12.60;99.90
15452;DHT22;7827;53.594;9.938;2023-10-09T11:45:53;12.60;99.90
15452;DHT22;7827;53.594;9.938;2023-10-09T11:48:24;12.60;99.90
15452;DHT22;7827;53.594;9.938;2023-10-09T11:51:00;12.60;99.90
15452;DHT22;7827;53.594;9.938;2023-10-09T11:53:43;12.60;99.90
15452;DHT22;7827;53.594;9.938;2023-10-09T11:56:14;12.70;99.90
15452;DHT22;7827;53.594;9.938;2023-10-09T11:58:47;12.70;99.90
15452;DHT22;7827;53.594;9.938;2023-10-09T12:01:17;12.80;99.90
15452;DHT22;7827;53.594;9.938;2023-10-09T12:03:47;12.80;99.90
15452;DHT22;7827;53.594;9.938;2023-10-09T12:06:19;12.90;99.90
15452;DHT22;7827;53.594;9.938;2023-10-09T12:08:49;12.90;99.90
15452;DHT22;7827;53.594;9.938;2023-10-09T12:11:19;12.90;99.90
15452;DHT22;7827;53.594;9.938;2023-10-09T12:13:56;13.00;99.90
15452;DHT22;7827;53.594;9.938;2023-10-09T12:16:27;13.00;99.90
15452;DHT22;7827;53.594;9.938;2023-10-09T12:19:00;13.10;99.90
15452;DHT22;7827;53.594;9.938;2023-10-09T12:21:29;13.10;99.90
15452;DHT22;7827;53.594;9.938;2023-10-09T12:23:58;13.20;99.90
15452;DHT22;7827;53.594;9.938;2023-10-09T12:26:30;13.30;99.90
15452;DHT22;7827;53.594;9.938;2023-10-09T12:29:02;13.30;99.90
15452;DHT22;7827;53.594;9.938;2023-10-09T12:31:31;13.50;99.90
15452;DHT22;7827;53.594;9.938;2023-10-09T12:34:01;13.70;99.90
15452;DHT22;7827;53.594;9.938;2023-10-09T12:36:29;13.70;99.90
15452;DHT22;7827;53.594;9.938;2023-10-09T12:39:04;13.60;99.90
15452;DHT22;7827;53.594;9.938;2023-10-09T12:41:35;13.70;99.90
15452;DHT22;7827;53.594;9.938;2023-10-09T12:44:08;13.80;99.90
15452;DHT22;7827;53.594;9.938;2023-10-09T12:46:42;13.80;99.90
15452;DHT22;7827;53.594;9.938;2023-10-09T12:49:19;13.70;99.90
15452;DHT22;7827;53.594;9.938;2023-10-09T12:51:52;13.70;99.90
15452;DHT22;7827;53.594;9.938;2023-10-09T12:54:20;13.80;99.90
15452;DHT22;7827;53.594;9.938;2023-10-09T12:56:55;13.80;99.90
15452;DHT22;7827;53.594;9.938;2023-10-09T12:59:25;13.70;99.90
15452;DHT22;7827;53.594;9.938;2023-10-09T13:01:53;13.60;99.90
15452;DHT22;7827;53.594;9.938;2023-10-09T13:04:25;13.60;99.90
15452;DHT22;7827;53.594;9.938;2023-10-09T13:06:59;13.60;99.90
15452;DHT22;7827;53.594;9.938;2023-10-09T13:09:31;13.70;99.90
15452;DHT22;7827;53.594;9.938;2023-10-09T13:12:04;13.70;99.90
15452;DHT22;7827;53.594;9.938;2023-10-09T13:14:34;13.80;99.90
15452;DHT22;7827;53.594;9.938;2023-10-09T13:17:02;13.80;99.90
15452;DHT22;7827;53.594;9.938;2023-10-09T13:19:37;13.80;99.90
15452;DHT22;7827;53.594;9.938;2023-10-09T13:22:05;13.80;99.90
15452;DHT22;7827;53.594;9.938;2023-10-09T13:24:40;13.80;99.90
15452;DHT22;7827;53.594;9.938;2023-10-09T13:27:10;13.80;99.90
15452;DHT22;7827;53.594;9.938;2023-10-09T13:29:38;14.00;99.90
15452;DHT22;7827;53.594;9.938;2023-10-09T13:32:08;14.00;99.90
15452;DHT22;7827;53.594;9.938;2023-10-09T13:34:42;14.20;99.90
15452;DHT22;7827;53.594;9.938;2023-10-09T13:37:12;14.10;99.90
15452;DHT22;7827;53.594;9.938;2023-10-09T13:39:41;14.10;99.90
15452;DHT22;7827;53.594;9.938;2023-10-09T13:42:20;14.20;99.90
15452;DHT22;7827;53.594;9.938;2023-10-09T13:44:52;14.10;99.90
15452;DHT22;7827;53.594;9.938;2023-10-09T13:47:21;14.10;99.90
15452;DHT22;7827;53.594;9.938;2023-10-09T13:49:56;14.20;99.90
15452;DHT22;7827;53.594;9.938;2023-10-09T13:52:26;14.20;99.90
15452;DHT22;7827;53.594;9.938;2023-10-09T13:54:55;14.20;99.90
15452;DHT22;7827;53.594;9.938;2023-10-09T13:57:26;14.30;99.90
15452;DHT22;7827;53.594;9.938;2023-10-09T13:59:58;14.30;99.90
15452;DHT22;7827;53.594;9.938;2023-10-09T14:02:27;14.30;99.90
15452;DHT22;7827;53.594;9.938;2023-10-09T14:04:56;14.30;99.90
15452;DHT22;7827;53.594;9.938;2023-10-09T14:07:28;14.40;99.90
15452;DHT22;7827;53.594;9.938;2023-10-09T14:09:56;14.30;99.90
15452;DHT22;7827;53.594;9.938;2023-10-09T14:12:36;14.30;99.90
15452;DHT22;7827;53.594;9.938;2023-10-09T14:15:08;14.40;99.90
15452;DHT22;7827;53.594;9.938;2023-10-09T14:17:44;14.40;99.90
15452;DHT22;7827;53.594;9.938;2023-10-09T14:20:14;14.40;99.90
15452;DHT22;7827;53.594;9.938;2023-10-09T14:22:58;14.40;99.90
15452;DHT22;7827;53.594;9.938;2023-10-09T14:25:33;14.50;99.90
15452;DHT22;7827;53.594;9.938;2023-10-09T14:28:06;14.50;99.90
15452;DHT22;7827;53.594;9.938;2023-10-09T14:30:35;14.50;99.90
15452;DHT22;7827;53.594;9.938;2023-10-09T14:33:09;14.60;99.90
15452;DHT22;7827;53.594;9.938;2023-10-09T14:35:41;14.60;99.90
15452;DHT22;7827;53.594;9.938;2023-10-09T14:38:09;14.60;99.90
15452;DHT22;7827;53.594;9.938;2023-10-09T14:40:43;14.60;99.90
15452;DHT22;7827;53.594;9.938;2023-10-09T14:43:14;14.60;99.90
15452;DHT22;7827;53.594;9.938;2023-10-09T14:45:51;14.70;99.90
15452;DHT22;7827;53.594;9.938;2023-10-09T14:48:20;14.70;99.90
15452;DHT22;7827;53.594;9.938;2023-10-09T14:50:53;14.70;99.90
15452;DHT22;7827;53.594;9.938;2023-10-09T14:53:22;14.70;99.90
15452;DHT22;7827;53.594;9.938;2023-10-09T14:55:57;14.70;99.90
15452;DHT22;7827;53.594;9.938;2023-10-09T14:58:28;14.70;99.90
15452;DHT22;7827;53.594;9.938;2023-10-09T15:01:07;14.70;99.90
15452;DHT22;7827;53.594;9.938;2023-10-09T15:03:42;14.70;99.90
15452;DHT22;7827;53.594;9.938;2023-10-09T15:06:11;14.70;99.90
15452;DHT22;7827;53.594;9.938;2023-10-09T15:08:41;14.90;99.90
15452;DHT22;7827;53.594;9.938;2023-10-09T15:11:09;15.00;99.90
15452;DHT22;7827;53.594;9.938;2023-10-09T15:13:39;14.90;99.90
15452;DHT22;7827;53.594;9.938;2023-10-09T15:16:07;14.90;99.90
15452;DHT22;7827;53.594;9.938;2023-10-09T15:18:38;14.90;99.90
15452;DHT22;7827;53.594;9.938;2023-10-09T15:21:06;14.80;99.90
15452;DHT22;7827;53.594;9.938;2023-10-09T15:23:35;14.80;99.90
15452;DHT22;7827;53.594;9.938;2023-10-09T15:26:04;14.90;99.90
15452;DHT22;7827;53.594;9.938;2023-10-09T15:28:34;14.90;99.90
15452;DHT22;7827;53.594;9.938;2023-10-09T15:31:07;14.90;99.90
15452;DHT22;7827;53.594;9.938;2023-10-09T15:33:38;15.00;99.90
15452;DHT22;7827;53.594;9.938;2023-10-09T15:36:11;15.00;99.90
15452;DHT22;7827;53.594;9.938;2023-10-09T15:38:40;15.00;99.90
15452;DHT22;7827;53.594;9.938;2023-10-09T15:41:08;15.00;99.90
15452;DHT22;7827;53.594;9.938;2023-10-09T15:43:37;15.00;99.90
15452;DHT22;7827;53.594;9.938;2023-10-09T15:46:11;15.00;99.90
15452;DHT22;7827;53.594;9.938;2023-10-09T15:48:42;15.10;99.90
15452;DHT22;7827;53.594;9.938;2023-10-09T15:51:13;15.10;99.90
15452;DHT22;7827;53.594;9.938;2023-10-09T15:53:43;15.10;99.90
15452;DHT22;7827;53.594;9.938;2023-10-09T15:56:12;15.10;99.90
15452;DHT22;7827;53.594;9.938;2023-10-09T15:58:44;15.10;99.90
15452;DHT22;7827;53.594;9.938;2023-10-09T16:01:16;15.20;99.90
15452;DHT22;7827;53.594;9.938;2023-10-09T16:03:46;15.20;99.90
15452;DHT22;7827;53.594;9.938;2023-10-09T16:06:16;15.30;99.90
15452;DHT22;7827;53.594;9.938;2023-10-09T16:08:46;15.30;99.90
15452;DHT22;7827;53.594;9.938;2023-10-09T16:11:18;15.20;99.90
15452;DHT22;7827;53.594;9.938;2023-10-09T16:13:46;15.20;99.90
15452;DHT22;7827;53.594;9.938;2023-10-09T16:16:24;15.20;99.90
15452;DHT22;7827;53.594;9.938;2023-10-09T16:18:55;15.30;99.90
15452;DHT22;7827;53.594;9.938;2023-10-09T16:21:25;15.30;99.90
15452;DHT22;7827;53.594;9.938;2023-10-09T16:23:53;15.30;99.90
15452;DHT22;7827;53.594;9.938;2023-10-09T16:26:22;15.30;99.90
15452;DHT22;7827;53.594;9.938;2023-10-09T16:28:51;15.40;99.90
15452;DHT22;7827;53.594;9.938;2023-10-09T16:31:21;15.40;99.90
15452;DHT22;7827;53.594;9.938;2023-10-09T16:33:50;15.50;99.90
15452;DHT22;7827;53.594;9.938;2023-10-09T16:36:18;15.50;99.90
15452;DHT22;7827;53.594;9.938;2023-10-09T16:38:48;15.50;99.90
15452;DHT22;7827;53.594;9.938;2023-10-09T16:41:16;15.60;99.90
15452;DHT22;7827;53.594;9.938;2023-10-09T16:43:44;15.70;99.90